DLH4LP EDDM-EDDF
Flight info
| Callsign | DLH4LP |
|---|---|
| Flight time | 0h 37m |
| Altitude | 24000 |
| Route | GIVMI1N GIVMI Y101 ERNAS T161 DEBHI DEBHI1B |
| Aircraft | A21N/M-SDE2E3FGIJ1LORWXYZ/HB1 |
Departure
| Time | 2026-05-07 07:15 |
|---|---|
| Airport | Munich Airport (EDDM) |
Arrival
| Time | 2026-05-07 07:52 |
|---|---|
| Airport | Frankfurt Main Airport (EDDF) |
| Time | Latitude | Longitude | Altitude | Speed | Heading |
|---|---|---|---|---|---|
| 2026-05-07 06:56 | 48.35713 | 11.79269 | 1474 ft | 0 kts | 264° |
| 2026-05-07 07:04 | 48.35713 | 11.79270 | 1474 ft | 1 kts | 264° |
| 2026-05-07 07:04 | 48.35715 | 11.79291 | 1474 ft | 2 kts | 264° |
| 2026-05-07 07:04 | 48.35717 | 11.79314 | 1474 ft | 2 kts | 264° |
| 2026-05-07 07:05 | 48.35718 | 11.79336 | 1474 ft | 2 kts | 264° |
| 2026-05-07 07:05 | 48.35720 | 11.79358 | 1473 ft | 2 kts | 264° |
| 2026-05-07 07:05 | 48.35718 | 11.79381 | 1472 ft | 2 kts | 297° |
| 2026-05-07 07:05 | 48.35708 | 11.79399 | 1471 ft | 2 kts | 323° |
| 2026-05-07 07:06 | 48.35695 | 11.79409 | 1471 ft | 1 kts | 348° |
| 2026-05-07 07:06 | 48.35688 | 11.79411 | 1470 ft | 1 kts | 357° |
| 2026-05-07 07:06 | 48.35686 | 11.79411 | 1470 ft | 0 kts | 355° |
| 2026-05-07 07:07 | 48.35688 | 11.79411 | 1470 ft | 0 kts | 355° |
| 2026-05-07 07:08 | 48.35692 | 11.79410 | 1470 ft | 1 kts | 355° |
| 2026-05-07 07:08 | 48.35718 | 11.79406 | 1472 ft | 5 kts | 352° |
| 2026-05-07 07:08 | 48.35765 | 11.79396 | 1473 ft | 8 kts | 352° |
| 2026-05-07 07:08 | 48.35834 | 11.79384 | 1475 ft | 11 kts | 353° |
| 2026-05-07 07:09 | 48.35930 | 11.79351 | 1475 ft | 17 kts | 336° |
| 2026-05-07 07:09 | 48.36071 | 11.79350 | 1466 ft | 23 kts | 40° |
| 2026-05-07 07:09 | 48.36115 | 11.79590 | 1460 ft | 25 kts | 83° |
| 2026-05-07 07:09 | 48.36134 | 11.79864 | 1455 ft | 26 kts | 83° |
| 2026-05-07 07:10 | 48.36157 | 11.80144 | 1452 ft | 27 kts | 84° |
| 2026-05-07 07:10 | 48.36179 | 11.80426 | 1449 ft | 27 kts | 83° |
| 2026-05-07 07:10 | 48.36203 | 11.80712 | 1448 ft | 27 kts | 83° |
| 2026-05-07 07:10 | 48.36222 | 11.80994 | 1447 ft | 26 kts | 84° |
| 2026-05-07 07:11 | 48.36247 | 11.81238 | 1446 ft | 19 kts | 64° |
| 2026-05-07 07:11 | 48.36343 | 11.81267 | 1445 ft | 14 kts | 351° |
| 2026-05-07 07:11 | 48.36374 | 11.81336 | 1446 ft | 11 kts | 106° |
| 2026-05-07 07:11 | 48.36366 | 11.81456 | 1446 ft | 12 kts | 83° |
| 2026-05-07 07:12 | 48.36377 | 11.81587 | 1447 ft | 12 kts | 84° |
| 2026-05-07 07:12 | 48.36387 | 11.81727 | 1447 ft | 14 kts | 83° |
| 2026-05-07 07:12 | 48.36400 | 11.81877 | 1447 ft | 15 kts | 83° |
| 2026-05-07 07:12 | 48.36450 | 11.81999 | 1447 ft | 15 kts | 1° |
| 2026-05-07 07:13 | 48.36562 | 11.81978 | 1446 ft | 17 kts | 353° |
| 2026-05-07 07:13 | 48.36667 | 11.81945 | 1446 ft | 12 kts | 309° |
| 2026-05-07 07:13 | 48.36670 | 11.81871 | 1446 ft | 0 kts | 262° |
| 2026-05-07 07:13 | 48.36670 | 11.81870 | 1446 ft | 0 kts | 262° |
| 2026-05-07 07:14 | 48.36657 | 11.81726 | 1446 ft | 45 kts | 262° |
| 2026-05-07 07:14 | 48.36595 | 11.80888 | 1448 ft | 114 kts | 263° |
| 2026-05-07 07:14 | 48.36480 | 11.79409 | 1514 ft | 162 kts | 262° |
| 2026-05-07 07:14 | 48.36360 | 11.77717 | 2077 ft | 165 kts | 264° |
| 2026-05-07 07:15 | 48.36260 | 11.75990 | 2757 ft | 168 kts | 263° |
| 2026-05-07 07:15 | 48.36140 | 11.74261 | 3422 ft | 167 kts | 262° |
| 2026-05-07 07:15 | 48.35989 | 11.72456 | 3708 ft | 186 kts | 263° |
| 2026-05-07 07:15 | 48.35823 | 11.70407 | 4055 ft | 205 kts | 263° |
| 2026-05-07 07:16 | 48.35791 | 11.68204 | 4475 ft | 222 kts | 281° |
| 2026-05-07 07:16 | 48.36396 | 11.65980 | 4946 ft | 240 kts | 298° |
| 2026-05-07 07:16 | 48.37327 | 11.63776 | 5348 ft | 259 kts | 301° |
| 2026-05-07 07:16 | 48.38311 | 11.61496 | 6076 ft | 263 kts | 300° |
| 2026-05-07 07:17 | 48.39281 | 11.59185 | 6847 ft | 267 kts | 300° |
| 2026-05-07 07:17 | 48.40281 | 11.56830 | 7644 ft | 269 kts | 299° |
| 2026-05-07 07:17 | 48.41246 | 11.54443 | 8436 ft | 271 kts | 298° |
| 2026-05-07 07:17 | 48.42223 | 11.51988 | 9212 ft | 274 kts | 297° |
| 2026-05-07 07:18 | 48.43207 | 11.49529 | 9967 ft | 277 kts | 297° |
| 2026-05-07 07:18 | 48.44205 | 11.47048 | 10682 ft | 281 kts | 297° |
| 2026-05-07 07:18 | 48.45289 | 11.44635 | 11377 ft | 289 kts | 309° |
| 2026-05-07 07:18 | 48.46965 | 11.42857 | 12019 ft | 304 kts | 334° |
| 2026-05-07 07:19 | 48.49062 | 11.42048 | 12475 ft | 321 kts | 346° |
| 2026-05-07 07:19 | 48.51298 | 11.41489 | 13087 ft | 327 kts | 347° |
| 2026-05-07 07:19 | 48.53519 | 11.40957 | 13772 ft | 330 kts | 346° |
| 2026-05-07 07:19 | 48.55783 | 11.40389 | 14455 ft | 332 kts | 346° |
| 2026-05-07 07:20 | 48.58052 | 11.39792 | 15117 ft | 334 kts | 345° |
| 2026-05-07 07:20 | 48.60350 | 11.39168 | 15773 ft | 336 kts | 344° |
| 2026-05-07 07:20 | 48.62653 | 11.38535 | 16417 ft | 338 kts | 344° |
| 2026-05-07 07:20 | 48.64985 | 11.37892 | 17052 ft | 340 kts | 343° |
| 2026-05-07 07:21 | 48.67313 | 11.37248 | 17669 ft | 342 kts | 343° |
| 2026-05-07 07:21 | 48.69587 | 11.36335 | 18273 ft | 337 kts | 333° |
| 2026-05-07 07:21 | 48.71674 | 11.34887 | 18870 ft | 331 kts | 323° |
| 2026-05-07 07:21 | 48.73609 | 11.33020 | 19489 ft | 329 kts | 319° |
| 2026-05-07 07:22 | 48.75486 | 11.31070 | 20083 ft | 329 kts | 318° |
| 2026-05-07 07:22 | 48.77401 | 11.29076 | 20469 ft | 337 kts | 319° |
| 2026-05-07 07:22 | 48.79372 | 11.27045 | 20858 ft | 344 kts | 319° |
| 2026-05-07 07:22 | 48.81379 | 11.25000 | 21399 ft | 345 kts | 319° |
| 2026-05-07 07:23 | 48.83326 | 11.22960 | 21948 ft | 344 kts | 317° |
| 2026-05-07 07:23 | 48.85227 | 11.20707 | 22492 ft | 342 kts | 314° |
| 2026-05-07 07:23 | 48.86982 | 11.18365 | 23008 ft | 342 kts | 312° |
| 2026-05-07 07:23 | 48.88738 | 11.15933 | 23520 ft | 342 kts | 311° |
| 2026-05-07 07:24 | 48.90290 | 11.13772 | 23845 ft | 343 kts | 311° |
| 2026-05-07 07:24 | 48.92165 | 11.11158 | 23930 ft | 342 kts | 312° |
| 2026-05-07 07:24 | 48.93563 | 11.09210 | 23938 ft | 342 kts | 311° |
| 2026-05-07 07:24 | 48.94574 | 11.07799 | 23941 ft | 341 kts | 312° |
| 2026-05-07 07:25 | 48.98950 | 11.01680 | 23946 ft | 341 kts | 311° |
| 2026-05-07 07:25 | 49.00715 | 10.99205 | 23945 ft | 340 kts | 311° |
| 2026-05-07 07:25 | 49.02464 | 10.96749 | 23942 ft | 340 kts | 311° |
| 2026-05-07 07:26 | 49.04203 | 10.94306 | 23940 ft | 339 kts | 311° |
| 2026-05-07 07:26 | 49.05947 | 10.91851 | 23937 ft | 339 kts | 311° |
| 2026-05-07 07:26 | 49.07690 | 10.89398 | 23934 ft | 339 kts | 311° |
| 2026-05-07 07:26 | 49.09425 | 10.86953 | 23931 ft | 339 kts | 311° |
| 2026-05-07 07:27 | 49.11149 | 10.84525 | 23929 ft | 340 kts | 311° |
| 2026-05-07 07:27 | 49.12892 | 10.82079 | 23914 ft | 341 kts | 311° |
| 2026-05-07 07:27 | 49.14636 | 10.79620 | 23656 ft | 340 kts | 311° |
| 2026-05-07 07:27 | 49.16369 | 10.77169 | 23404 ft | 339 kts | 311° |
| 2026-05-07 07:28 | 49.18091 | 10.74728 | 23154 ft | 338 kts | 311° |
| 2026-05-07 07:28 | 49.19800 | 10.72254 | 22903 ft | 336 kts | 309° |
| 2026-05-07 07:28 | 49.21440 | 10.69717 | 22652 ft | 335 kts | 308° |
| 2026-05-07 07:28 | 49.23078 | 10.67142 | 22399 ft | 334 kts | 308° |
| 2026-05-07 07:29 | 49.24692 | 10.64600 | 22148 ft | 334 kts | 308° |
| 2026-05-07 07:29 | 49.26314 | 10.62040 | 21896 ft | 333 kts | 308° |
| 2026-05-07 07:29 | 49.27918 | 10.59507 | 21647 ft | 333 kts | 308° |
| 2026-05-07 07:29 | 49.29524 | 10.56969 | 21396 ft | 332 kts | 308° |
| 2026-05-07 07:30 | 49.31135 | 10.54421 | 21145 ft | 331 kts | 308° |
| 2026-05-07 07:30 | 49.32735 | 10.51888 | 20894 ft | 331 kts | 308° |
| 2026-05-07 07:30 | 49.34340 | 10.49342 | 20642 ft | 330 kts | 308° |
| 2026-05-07 07:30 | 49.35857 | 10.46729 | 20392 ft | 328 kts | 304° |
| 2026-05-07 07:31 | 49.37254 | 10.43997 | 20142 ft | 325 kts | 301° |
| 2026-05-07 07:31 | 49.38584 | 10.41139 | 19889 ft | 324 kts | 301° |
| 2026-05-07 07:31 | 49.39870 | 10.38328 | 19640 ft | 323 kts | 301° |
| 2026-05-07 07:31 | 49.41160 | 10.35500 | 19389 ft | 323 kts | 301° |
| 2026-05-07 07:32 | 49.42432 | 10.32703 | 19142 ft | 322 kts | 300° |
| 2026-05-07 07:32 | 49.43698 | 10.29910 | 18893 ft | 321 kts | 300° |
| 2026-05-07 07:32 | 49.44965 | 10.27117 | 18645 ft | 321 kts | 300° |
| 2026-05-07 07:32 | 49.46257 | 10.24270 | 18391 ft | 320 kts | 300° |
| 2026-05-07 07:33 | 49.47527 | 10.21469 | 18140 ft | 320 kts | 300° |
| 2026-05-07 07:33 | 49.48786 | 10.18692 | 17892 ft | 319 kts | 300° |
| 2026-05-07 07:33 | 49.50053 | 10.15893 | 17642 ft | 319 kts | 300° |
| 2026-05-07 07:33 | 49.51303 | 10.13132 | 17393 ft | 318 kts | 300° |
| 2026-05-07 07:34 | 49.52558 | 10.10356 | 17144 ft | 318 kts | 300° |
| 2026-05-07 07:34 | 49.53821 | 10.07561 | 16892 ft | 317 kts | 300° |
| 2026-05-07 07:34 | 49.55094 | 10.04740 | 16639 ft | 316 kts | 300° |
| 2026-05-07 07:34 | 49.56330 | 10.01997 | 16391 ft | 316 kts | 300° |
| 2026-05-07 07:35 | 49.57584 | 9.99213 | 16140 ft | 315 kts | 300° |
| 2026-05-07 07:35 | 49.58821 | 9.96465 | 15951 ft | 315 kts | 300° |
| 2026-05-07 07:35 | 49.60054 | 9.93724 | 15927 ft | 316 kts | 300° |
| 2026-05-07 07:35 | 49.61316 | 9.90914 | 15584 ft | 315 kts | 300° |
| 2026-05-07 07:36 | 49.62563 | 9.88135 | 15206 ft | 313 kts | 301° |
| 2026-05-07 07:36 | 49.63781 | 9.85413 | 14835 ft | 312 kts | 301° |
| 2026-05-07 07:36 | 49.65014 | 9.82658 | 14459 ft | 312 kts | 301° |
| 2026-05-07 07:36 | 49.66251 | 9.79889 | 14080 ft | 311 kts | 301° |
| 2026-05-07 07:37 | 49.67465 | 9.77169 | 13706 ft | 310 kts | 301° |
| 2026-05-07 07:37 | 49.68696 | 9.74407 | 13327 ft | 309 kts | 301° |
| 2026-05-07 07:37 | 49.69919 | 9.71660 | 12948 ft | 308 kts | 301° |
| 2026-05-07 07:37 | 49.71153 | 9.68993 | 12571 ft | 309 kts | 307° |
| 2026-05-07 07:38 | 49.72651 | 9.66548 | 12185 ft | 311 kts | 312° |
| 2026-05-07 07:38 | 49.74202 | 9.64252 | 11759 ft | 310 kts | 313° |
| 2026-05-07 07:38 | 49.75751 | 9.61990 | 11337 ft | 308 kts | 313° |
| 2026-05-07 07:38 | 49.77300 | 9.59727 | 10911 ft | 306 kts | 313° |
| 2026-05-07 07:39 | 49.78836 | 9.57474 | 10486 ft | 304 kts | 313° |
| 2026-05-07 07:39 | 49.80378 | 9.55203 | 10055 ft | 302 kts | 313° |
| 2026-05-07 07:39 | 49.81890 | 9.52967 | 9629 ft | 300 kts | 313° |
| 2026-05-07 07:39 | 49.83382 | 9.50751 | 9204 ft | 298 kts | 314° |
| 2026-05-07 07:40 | 49.84854 | 9.48556 | 8782 ft | 296 kts | 314° |
| 2026-05-07 07:40 | 49.86330 | 9.46346 | 8355 ft | 294 kts | 314° |
| 2026-05-07 07:40 | 49.87795 | 9.44140 | 7927 ft | 292 kts | 314° |
| 2026-05-07 07:40 | 49.89245 | 9.41949 | 7500 ft | 290 kts | 314° |
| 2026-05-07 07:41 | 49.90682 | 9.39769 | 7086 ft | 287 kts | 314° |
| 2026-05-07 07:41 | 49.92072 | 9.37653 | 6935 ft | 275 kts | 314° |
| 2026-05-07 07:41 | 49.93396 | 9.35599 | 6924 ft | 258 kts | 309° |
| 2026-05-07 07:41 | 49.94402 | 9.33643 | 6879 ft | 244 kts | 304° |
| 2026-05-07 07:42 | 49.95401 | 9.31493 | 6632 ft | 238 kts | 303° |
| 2026-05-07 07:42 | 49.96361 | 9.29377 | 6306 ft | 237 kts | 302° |
| 2026-05-07 07:42 | 49.97300 | 9.27285 | 5980 ft | 236 kts | 302° |
| 2026-05-07 07:42 | 49.98233 | 9.25202 | 5651 ft | 235 kts | 302° |
| 2026-05-07 07:43 | 49.99167 | 9.23105 | 5326 ft | 234 kts | 302° |
| 2026-05-07 07:43 | 50.00085 | 9.21053 | 4995 ft | 233 kts | 302° |
| 2026-05-07 07:43 | 50.01000 | 9.18999 | 4680 ft | 232 kts | 302° |
| 2026-05-07 07:43 | 50.01928 | 9.16909 | 4357 ft | 231 kts | 302° |
| 2026-05-07 07:44 | 50.02820 | 9.14919 | 4183 ft | 224 kts | 302° |
| 2026-05-07 07:44 | 50.03690 | 9.12973 | 4028 ft | 216 kts | 302° |
| 2026-05-07 07:44 | 50.04523 | 9.11097 | 3964 ft | 208 kts | 302° |
| 2026-05-07 07:44 | 50.05348 | 9.09225 | 3959 ft | 208 kts | 303° |
| 2026-05-07 07:45 | 50.06147 | 9.07368 | 3955 ft | 208 kts | 302° |
| 2026-05-07 07:45 | 50.06954 | 9.05504 | 3956 ft | 208 kts | 303° |
| 2026-05-07 07:45 | 50.07772 | 9.03625 | 3954 ft | 209 kts | 302° |
| 2026-05-07 07:45 | 50.08588 | 9.01765 | 3955 ft | 209 kts | 302° |
| 2026-05-07 07:46 | 50.09414 | 8.99873 | 3955 ft | 209 kts | 298° |
| 2026-05-07 07:46 | 50.09969 | 8.97798 | 3952 ft | 208 kts | 285° |
| 2026-05-07 07:46 | 50.10342 | 8.95699 | 3955 ft | 207 kts | 284° |
| 2026-05-07 07:46 | 50.10682 | 8.93575 | 3955 ft | 207 kts | 283° |
| 2026-05-07 07:47 | 50.11006 | 8.91378 | 3954 ft | 207 kts | 278° |
| 2026-05-07 07:47 | 50.11014 | 8.89134 | 3959 ft | 207 kts | 262° |
| 2026-05-07 07:47 | 50.10712 | 8.87076 | 3959 ft | 207 kts | 255° |
| 2026-05-07 07:47 | 50.10283 | 8.84896 | 3831 ft | 198 kts | 252° |
| 2026-05-07 07:48 | 50.09859 | 8.82972 | 3692 ft | 188 kts | 251° |
| 2026-05-07 07:48 | 50.09419 | 8.81090 | 3443 ft | 186 kts | 251° |
| 2026-05-07 07:48 | 50.08979 | 8.79267 | 3184 ft | 181 kts | 250° |
| 2026-05-07 07:48 | 50.08548 | 8.77503 | 2931 ft | 174 kts | 251° |
| 2026-05-07 07:49 | 50.08141 | 8.75836 | 2721 ft | 159 kts | 252° |
| 2026-05-07 07:49 | 50.07758 | 8.74258 | 2497 ft | 153 kts | 251° |
| 2026-05-07 07:49 | 50.07390 | 8.72735 | 2281 ft | 151 kts | 252° |
| 2026-05-07 07:49 | 50.07016 | 8.71187 | 2076 ft | 154 kts | 252° |
| 2026-05-07 07:50 | 50.06641 | 8.69631 | 1869 ft | 152 kts | 250° |
| 2026-05-07 07:50 | 50.06267 | 8.68086 | 1661 ft | 153 kts | 252° |
| 2026-05-07 07:50 | 50.05897 | 8.66552 | 1447 ft | 143 kts | 252° |
| 2026-05-07 07:50 | 50.05560 | 8.65151 | 1246 ft | 135 kts | 252° |
| 2026-05-07 07:51 | 50.05233 | 8.63784 | 1072 ft | 135 kts | 251° |
| 2026-05-07 07:51 | 50.04903 | 8.62410 | 893 ft | 135 kts | 251° |
| 2026-05-07 07:51 | 50.04576 | 8.61041 | 716 ft | 135 kts | 251° |
| 2026-05-07 07:51 | 50.04250 | 8.59692 | 539 ft | 136 kts | 252° |
| 2026-05-07 07:52 | 50.03916 | 8.58291 | 378 ft | 135 kts | 252° |
| 2026-05-07 07:52 | 50.03621 | 8.57049 | 343 ft | 102 kts | 250° |
| 2026-05-07 07:52 | 50.03435 | 8.56265 | 339 ft | 53 kts | 250° |
| 2026-05-07 07:52 | 50.03345 | 8.55885 | 337 ft | 32 kts | 251° |
| 2026-05-07 07:53 | 50.03304 | 8.55571 | 334 ft | 28 kts | 277° |
| 2026-05-07 07:53 | 50.03326 | 8.55374 | 334 ft | 10 kts | 280° |
| 2026-05-07 07:53 | 50.03337 | 8.55280 | 334 ft | 8 kts | 280° |
| 2026-05-07 07:53 | 50.03345 | 8.55208 | 334 ft | 3 kts | 280° |
| 2026-05-07 07:54 | 50.03350 | 8.55157 | 334 ft | 5 kts | 280° |
| 2026-05-07 07:54 | 50.03358 | 8.55091 | 334 ft | 6 kts | 280° |
| 2026-05-07 07:54 | 50.03366 | 8.55008 | 334 ft | 8 kts | 276° |
| 2026-05-07 07:54 | 50.03357 | 8.54907 | 334 ft | 10 kts | 251° |
| 2026-05-07 07:55 | 50.03329 | 8.54788 | 333 ft | 12 kts | 249° |
| 2026-05-07 07:55 | 50.03294 | 8.54647 | 332 ft | 15 kts | 250° |
| 2026-05-07 07:55 | 50.03290 | 8.54522 | 330 ft | 8 kts | 341° |
| 2026-05-07 07:55 | 50.03345 | 8.54465 | 331 ft | 10 kts | 329° |
| 2026-05-07 07:56 | 50.03415 | 8.54421 | 332 ft | 11 kts | 340° |
| 2026-05-07 07:56 | 50.03494 | 8.54376 | 333 ft | 13 kts | 340° |
| 2026-05-07 07:56 | 50.03574 | 8.54329 | 335 ft | 11 kts | 339° |
| 2026-05-07 07:56 | 50.03645 | 8.54312 | 337 ft | 12 kts | 30° |
| 2026-05-07 07:57 | 50.03686 | 8.54441 | 337 ft | 14 kts | 69° |
| 2026-05-07 07:57 | 50.03722 | 8.54589 | 338 ft | 15 kts | 69° |
| 2026-05-07 07:57 | 50.03760 | 8.54746 | 340 ft | 14 kts | 71° |
| 2026-05-07 07:57 | 50.03794 | 8.54893 | 343 ft | 14 kts | 70° |
| 2026-05-07 07:58 | 50.03833 | 8.55053 | 344 ft | 16 kts | 69° |
| 2026-05-07 07:58 | 50.03873 | 8.55216 | 347 ft | 16 kts | 70° |
| 2026-05-07 07:58 | 50.03914 | 8.55393 | 348 ft | 18 kts | 69° |
| 2026-05-07 07:58 | 50.03960 | 8.55586 | 348 ft | 20 kts | 70° |
| 2026-05-07 07:59 | 50.04009 | 8.55792 | 348 ft | 21 kts | 70° |
| 2026-05-07 07:59 | 50.04050 | 8.55960 | 351 ft | 11 kts | 70° |
| 2026-05-07 07:59 | 50.04066 | 8.56032 | 351 ft | 4 kts | 70° |
| 2026-05-07 07:59 | 50.04067 | 8.56035 | 351 ft | 0 kts | 70° |
| 2026-05-07 08:00 | 50.04068 | 8.56037 | 351 ft | 0 kts | 70° |
| 2026-05-07 08:00 | 50.04075 | 8.56069 | 351 ft | 10 kts | 70° |
| 2026-05-07 08:00 | 50.04102 | 8.56187 | 354 ft | 11 kts | 70° |
| 2026-05-07 08:00 | 50.04135 | 8.56318 | 355 ft | 14 kts | 70° |
| 2026-05-07 08:01 | 50.04171 | 8.56469 | 357 ft | 15 kts | 69° |
| 2026-05-07 08:01 | 50.04209 | 8.56629 | 358 ft | 16 kts | 70° |
| 2026-05-07 08:01 | 50.04234 | 8.56732 | 360 ft | 8 kts | 70° |
| 2026-05-07 08:01 | 50.04241 | 8.56763 | 361 ft | 0 kts | 70° |
| 2026-05-07 08:02 | 50.04243 | 8.56768 | 361 ft | 1 kts | 64° |
| 2026-05-07 08:02 | 50.04256 | 8.56792 | 363 ft | 4 kts | 38° |
| 2026-05-07 08:02 | 50.04290 | 8.56811 | 364 ft | 6 kts | 11° |
| 2026-05-07 08:03 | 50.04352 | 8.56828 | 367 ft | 9 kts | 10° |
| 2026-05-07 08:03 | 50.04417 | 8.56846 | 368 ft | 9 kts | 10° |
| 2026-05-07 08:03 | 50.04488 | 8.56865 | 369 ft | 10 kts | 11° |
| 2026-05-07 08:03 | 50.04562 | 8.56887 | 370 ft | 11 kts | 9° |
| 2026-05-07 08:04 | 50.04637 | 8.56923 | 371 ft | 9 kts | 27° |
| 2026-05-07 08:04 | 50.04682 | 8.56925 | 372 ft | 6 kts | 321° |
| 2026-05-07 08:04 | 50.04699 | 8.56874 | 371 ft | 2 kts | 294° |
| 2026-05-07 08:04 | 50.04707 | 8.56846 | 371 ft | 0 kts | 295° |